WetterOnline ( https://www.wetteronline.de )

Wetter aktuell Titisee-Neustadt

Aktuelles Wetter: Feldberg/Schwarzwald (1493m)

6-stündlich | Neueste Meldungen
Ortszeit Temperatur Wetter
Sa, 15.06. 2:00 8.9° C Nebel
Fr, 14.06. 20:00 9.2° C bedeckt
Fr, 14.06. 14:00 7.7° C Nebel
Fr, 14.06. 8:00 5.9° C bewölkt
Fr, 14.06. 2:00 7.9° C bedeckt
Do, 13.06. 20:00 9.1° C wolkig
Do, 13.06. 14:00 7.9° C bewölkt
Do, 13.06. 8:00 6.0° C leicht bewölkt
Ortszeit Temperatur Wetter
Sa, 15.06. 4:00 7.7° C leichter Regen
Sa, 15.06. 3:40 8.8° C Regen
Sa, 15.06. 3:30 8.8° C leichter Regen
Sa, 15.06. 3:20 8.8° C leichter Regen
Sa, 15.06. 3:10 8.9° C leichter Regen
Sa, 15.06. 3:00 8.8° C leichter Regen
Sa, 15.06. 2:50 8.8° C leichter Regen
Sa, 15.06. 2:30 8.8° C Nebel
Sa, 15.06. 2:00 8.9° C Nebel
Sa, 15.06. 1:30 8.9° C Nebel
Sa, 15.06. 1:00 9.5° C bedeckt
Ortszeit Relative Feuchte Sichtweite
Sa, 15.06. 2:00 100% <100 m
Fr, 14.06. 20:00 94% 55 km
Fr, 14.06. 14:00 100% <100 m
Fr, 14.06. 8:00 88% 26 km
Fr, 14.06. 2:00 69% 55 km
Do, 13.06. 20:00 62% >70 km
Do, 13.06. 14:00 72% 40 km
Do, 13.06. 8:00 74% 45 km
Ortszeit Relative Feuchte Sichtweite
Sa, 15.06. 4:00 100% 100 m
Sa, 15.06. 3:40 100% -
Sa, 15.06. 3:30 100% <100 m
Sa, 15.06. 3:20 100% -
Sa, 15.06. 3:10 100% -
Sa, 15.06. 3:00 100% <100 m
Sa, 15.06. 2:50 100% -
Sa, 15.06. 2:30 100% <100 m
Sa, 15.06. 2:00 100% <100 m
Sa, 15.06. 1:30 99% 100 m
Sa, 15.06. 1:00 92% 24 km
Ortszeit Niederschlagsmenge Niederschlagsart
Sa, 15.06. 2:00 1 l/m2 in 6 Std. Regen
Fr, 14.06. 20:00 2 l/m2 in 12 Std. Regen
Fr, 14.06. 14:00 1 l/m2 in 6 Std. Regen
Fr, 14.06. 8:00 0.3 l/m2 in 12 Std. Sprühregen, Niederschlag
Fr, 14.06. 2:00 0.0 l/m2 in 6 Std. -
Do, 13.06. 20:00 0.0 l/m2 in 12 Std. -
Do, 13.06. 14:00 0.0 l/m2 in 6 Std. -
Do, 13.06. 8:00 0.2 l/m2 in 12 Std. -
Ortszeit Niederschlagsmenge Niederschlagsart
Sa, 15.06. 4:00 3.3 l/m2 in 1 Std. Regen
Sa, 15.06. 3:40 keine Meldung -
Sa, 15.06. 3:30 1.8 l/m2 in 30 Min -
Sa, 15.06. 3:20 keine Meldung -
Sa, 15.06. 3:10 keine Meldung -
Sa, 15.06. 3:00 1.5 l/m2 in 1 Std. Regen, Niederschlag
Sa, 15.06. 2:50 keine Meldung -
Sa, 15.06. 2:30 0.1 l/m2 in 30 Min -
Sa, 15.06. 2:00 0.5 l/m2 in 1 Std. Regen
Sa, 15.06. 1:30 0.3 l/m2 in 30 Min -
Sa, 15.06. 1:00 <0.05 l/m2 in 1 Std. Sprühregen
Ortszeit Stärke Spitze Richtung
km/h Bft. km/h Grad Sektor
Sa, 15.06. 2:00 39 6 70 210° SW
Fr, 14.06. 20:00 37 5 59 200° S
Fr, 14.06. 14:00 50 6 80 210° SW
Fr, 14.06. 8:00 41 6 74 220° SW
Fr, 14.06. 2:00 28 4 48 200° S
Do, 13.06. 20:00 14 3 25 220° SW
Do, 13.06. 14:00 11 2 36 110° O
Do, 13.06. 8:00 4 1 14 300° NW
Ortszeit Stärke Spitze Richtung
km/h Bft. km/h Grad Sektor
Sa, 15.06. 4:00 40 6 54 270° W
Sa, 15.06. 3:40 25 4 - 200° S
Sa, 15.06. 3:30 26 4 48 210° SW
Sa, 15.06. 3:20 26 4 - 210° SW
Sa, 15.06. 3:10 31 5 - 210° SW
Sa, 15.06. 3:00 37 5 48 220° SW
Sa, 15.06. 2:50 37 5 - 220° SW
Sa, 15.06. 2:30 43 6 48 220° SW
Sa, 15.06. 2:00 39 6 54 210° SW
Sa, 15.06. 1:30 41 6 54 220° SW
Sa, 15.06. 1:00 40 6 54 210° SW
Ortszeit Untergrenze Bedeckung Gattung
total tief tief mittel hoch
Sa, 15.06. 2:00 <30 m 8/8 0/8 - - -
Fr, 14.06. 20:00 510 m 8/8 8/8 - - -
Fr, 14.06. 14:00 <30 m 7/8 0/8 - - -
Fr, 14.06. 8:00 900 m 7/8 7/8 - - -
Fr, 14.06. 2:00 3600 m 8/8 8/8 - - -
Do, 13.06. 20:00 5700 m 8/8 2/8 - - -
Do, 13.06. 14:00 600 m 7/8 7/8 - - -
Do, 13.06. 8:00 1500 m 3/8 3/8 - - -
Ortszeit Bedeckungsgrad in Achtel und Wolkenuntergrenze
Sa, 15.06. 4:00 8(<30m)
Sa, 15.06. 3:40 8
Sa, 15.06. 3:30 7(<30m)
Sa, 15.06. 3:20 7(<30m)
Sa, 15.06. 3:10 7
Sa, 15.06. 3:00 8(<30m)
Sa, 15.06. 2:50 8(<30m)
Sa, 15.06. 2:30 8(<30m)
Sa, 15.06. 2:00 7(<30m) 8(1170m) 8(1410m)
Sa, 15.06. 1:30 5(30m) 8(1500m) 8(2100m)
Sa, 15.06. 1:00 6(450m) 8(630m)
Ortszeit Stationsdruck (hPa) Tendenz (hPa in 3 Std.)
Sa, 15.06. 2:00 844 - 1,6
Fr, 14.06. 20:00 847 - 0,8
Fr, 14.06. 14:00 848 - 0,2
Fr, 14.06. 8:00 847 - 0,2
Fr, 14.06. 2:00 849 - 0,8
Do, 13.06. 20:00 851 - 0,5
Do, 13.06. 14:00 852 - 0,2
Do, 13.06. 8:00 851 + 0,4
Ortszeit Stationsdruck (hPa) Tendenz (hPa in 3 Std.)
Sa, 15.06. 4:00 844 - 1,4
Sa, 15.06. 3:40 844 keine Meldung
Sa, 15.06. 3:30 844 - 1,6
Sa, 15.06. 3:20 844 keine Meldung
Sa, 15.06. 3:10 844 keine Meldung
Sa, 15.06. 3:00 844 - 1,4
Sa, 15.06. 2:50 844 keine Meldung
Sa, 15.06. 2:30 844 - 1,7
Sa, 15.06. 2:00 844 - 1,6
Sa, 15.06. 1:30 844 - 1,6
Sa, 15.06. 1:00 845 - 1,2
Ortszeit Schneehöhe (cm)
Sa, 15.06. 2:00 0
Fr, 14.06. 20:00 0
Fr, 14.06. 14:00 0
Fr, 14.06. 8:00 0
Fr, 14.06. 2:00 0
Do, 13.06. 20:00 0
Do, 13.06. 14:00 0
Do, 13.06. 8:00 0
Ortszeit Schneehöhe (cm)
Sa, 15.06. 4:00 0
Sa, 15.06. 3:40 -
Sa, 15.06. 3:30 0
Sa, 15.06. 3:20 0
Sa, 15.06. 3:10 -
Sa, 15.06. 3:00 0
Sa, 15.06. 2:50 0
Sa, 15.06. 2:30 0
Sa, 15.06. 2:00 0
Sa, 15.06. 1:30 0
Sa, 15.06. 1:00 0
Link zu dieser Seite / Seite empfehlen

Das Wetter in ...